sensor_id;sensor_type;location;lat;lon;timestamp;P1;durP1;ratioP1;P2;durP2;ratioP2
20179;SDS011;10249;48.900;9.090;2023-09-19T00:00:16;10.00;;;9.70;;
20179;SDS011;10249;48.900;9.090;2023-09-19T00:02:46;9.73;;;9.43;;
20179;SDS011;10249;48.900;9.090;2023-09-19T00:05:17;9.60;;;9.30;;
20179;SDS011;10249;48.900;9.090;2023-09-19T00:07:48;9.87;;;9.57;;
20179;SDS011;10249;48.900;9.090;2023-09-19T00:10:17;9.60;;;9.30;;
20179;SDS011;10249;48.900;9.090;2023-09-19T00:12:44;9.60;;;9.30;;
20179;SDS011;10249;48.900;9.090;2023-09-19T00:15:13;9.67;;;9.37;;
20179;SDS011;10249;48.900;9.090;2023-09-19T00:17:42;9.50;;;9.20;;
20179;SDS011;10249;48.900;9.090;2023-09-19T00:20:10;9.40;;;9.10;;
20179;SDS011;10249;48.900;9.090;2023-09-19T00:22:41;9.40;;;9.10;;
20179;SDS011;10249;48.900;9.090;2023-09-19T00:25:08;9.50;;;9.20;;
20179;SDS011;10249;48.900;9.090;2023-09-19T00:27:37;9.37;;;9.07;;
20179;SDS011;10249;48.900;9.090;2023-09-19T00:30:07;9.60;;;9.30;;
20179;SDS011;10249;48.900;9.090;2023-09-19T00:32:41;9.80;;;9.50;;
20179;SDS011;10249;48.900;9.090;2023-09-19T00:35:09;9.10;;;8.80;;
20179;SDS011;10249;48.900;9.090;2023-09-19T00:37:36;9.00;;;8.70;;
20179;SDS011;10249;48.900;9.090;2023-09-19T00:40:05;9.50;;;9.20;;
20179;SDS011;10249;48.900;9.090;2023-09-19T00:42:36;9.40;;;9.10;;
20179;SDS011;10249;48.900;9.090;2023-09-19T00:45:04;9.27;;;8.97;;
20179;SDS011;10249;48.900;9.090;2023-09-19T00:47:32;9.13;;;8.83;;
20179;SDS011;10249;48.900;9.090;2023-09-19T00:50:00;9.10;;;8.80;;
20179;SDS011;10249;48.900;9.090;2023-09-19T00:52:28;8.90;;;8.60;;
20179;SDS011;10249;48.900;9.090;2023-09-19T00:54:55;9.10;;;8.80;;
20179;SDS011;10249;48.900;9.090;2023-09-19T00:57:23;9.33;;;9.03;;
20179;SDS011;10249;48.900;9.090;2023-09-19T00:59:50;9.20;;;8.90;;
20179;SDS011;10249;48.900;9.090;2023-09-19T01:02:19;9.17;;;8.87;;
20179;SDS011;10249;48.900;9.090;2023-09-19T01:04:47;9.13;;;8.83;;
20179;SDS011;10249;48.900;9.090;2023-09-19T01:07:17;9.13;;;8.83;;
20179;SDS011;10249;48.900;9.090;2023-09-19T01:09:44;9.60;;;9.30;;
20179;SDS011;10249;48.900;9.090;2023-09-19T01:12:10;9.50;;;9.20;;
20179;SDS011;10249;48.900;9.090;2023-09-19T01:14:44;9.47;;;9.17;;
20179;SDS011;10249;48.900;9.090;2023-09-19T01:17:23;9.33;;;9.03;;
20179;SDS011;10249;48.900;9.090;2023-09-19T01:20:03;9.30;;;9.00;;
20179;SDS011;10249;48.900;9.090;2023-09-19T01:22:42;9.53;;;9.23;;
20179;SDS011;10249;48.900;9.090;2023-09-19T01:25:33;9.23;;;8.93;;
20179;SDS011;10249;48.900;9.090;2023-09-19T01:28:25;16.60;;;16.07;;
20179;SDS011;10249;48.900;9.090;2023-09-19T01:31:03;9.10;;;8.80;;
20179;SDS011;10249;48.900;9.090;2023-09-19T01:36:22;9.13;;;8.83;;
20179;SDS011;10249;48.900;9.090;2023-09-19T01:38:49;9.10;;;8.80;;
20179;SDS011;10249;48.900;9.090;2023-09-19T01:41:17;9.10;;;8.80;;
20179;SDS011;10249;48.900;9.090;2023-09-19T01:43:52;8.80;;;8.50;;
20179;SDS011;10249;48.900;9.090;2023-09-19T01:46:21;8.97;;;8.67;;
20179;SDS011;10249;48.900;9.090;2023-09-19T01:48:54;9.53;;;9.23;;
20179;SDS011;10249;48.900;9.090;2023-09-19T01:51:32;9.30;;;9.00;;
20179;SDS011;10249;48.900;9.090;2023-09-19T01:54:03;9.07;;;8.77;;
20179;SDS011;10249;48.900;9.090;2023-09-19T01:56:36;8.80;;;8.50;;
20179;SDS011;10249;48.900;9.090;2023-09-19T01:59:06;8.90;;;8.60;;
20179;SDS011;10249;48.900;9.090;2023-09-19T02:01:37;8.80;;;8.50;;
20179;SDS011;10249;48.900;9.090;2023-09-19T02:04:05;9.03;;;8.73;;
20179;SDS011;10249;48.900;9.090;2023-09-19T02:06:34;9.13;;;8.83;;
20179;SDS011;10249;48.900;9.090;2023-09-19T02:09:01;9.27;;;8.97;;
20179;SDS011;10249;48.900;9.090;2023-09-19T02:11:29;9.00;;;8.70;;
20179;SDS011;10249;48.900;9.090;2023-09-19T02:13:55;8.80;;;8.50;;
20179;SDS011;10249;48.900;9.090;2023-09-19T02:16:22;8.70;;;8.40;;
20179;SDS011;10249;48.900;9.090;2023-09-19T02:18:50;8.90;;;8.60;;
20179;SDS011;10249;48.900;9.090;2023-09-19T02:21:17;8.97;;;8.67;;
20179;SDS011;10249;48.900;9.090;2023-09-19T02:23:45;9.00;;;8.70;;
20179;SDS011;10249;48.900;9.090;2023-09-19T02:26:12;8.53;;;8.23;;
20179;SDS011;10249;48.900;9.090;2023-09-19T02:28:39;8.80;;;8.50;;
20179;SDS011;10249;48.900;9.090;2023-09-19T02:31:06;8.60;;;8.30;;
20179;SDS011;10249;48.900;9.090;2023-09-19T02:33:33;9.03;;;8.73;;
20179;SDS011;10249;48.900;9.090;2023-09-19T02:36:02;9.10;;;8.80;;
20179;SDS011;10249;48.900;9.090;2023-09-19T02:38:30;9.00;;;8.70;;
20179;SDS011;10249;48.900;9.090;2023-09-19T02:40:57;8.33;;;8.03;;
20179;SDS011;10249;48.900;9.090;2023-09-19T02:43:24;8.40;;;8.10;;
20179;SDS011;10249;48.900;9.090;2023-09-19T02:45:51;8.47;;;8.17;;
20179;SDS011;10249;48.900;9.090;2023-09-19T02:48:19;8.60;;;8.30;;
20179;SDS011;10249;48.900;9.090;2023-09-19T02:50:48;8.70;;;8.40;;
20179;SDS011;10249;48.900;9.090;2023-09-19T02:53:17;8.80;;;8.50;;
20179;SDS011;10249;48.900;9.090;2023-09-19T02:55:44;8.77;;;8.47;;
20179;SDS011;10249;48.900;9.090;2023-09-19T02:58:13;8.83;;;8.53;;
20179;SDS011;10249;48.900;9.090;2023-09-19T03:00:40;9.03;;;8.73;;
20179;SDS011;10249;48.900;9.090;2023-09-19T03:03:07;9.30;;;9.00;;
20179;SDS011;10249;48.900;9.090;2023-09-19T03:05:35;9.07;;;8.77;;
20179;SDS011;10249;48.900;9.090;2023-09-19T03:08:03;9.27;;;8.97;;
20179;SDS011;10249;48.900;9.090;2023-09-19T03:10:32;9.80;;;9.50;;
20179;SDS011;10249;48.900;9.090;2023-09-19T03:13:02;9.40;;;9.10;;
20179;SDS011;10249;48.900;9.090;2023-09-19T03:15:29;9.63;;;9.33;;
20179;SDS011;10249;48.900;9.090;2023-09-19T03:17:56;9.60;;;9.30;;
20179;SDS011;10249;48.900;9.090;2023-09-19T03:20:24;9.70;;;9.40;;
20179;SDS011;10249;48.900;9.090;2023-09-19T03:22:52;9.67;;;9.37;;
20179;SDS011;10249;48.900;9.090;2023-09-19T03:25:19;9.90;;;9.60;;
20179;SDS011;10249;48.900;9.090;2023-09-19T03:27:49;9.43;;;9.13;;
20179;SDS011;10249;48.900;9.090;2023-09-19T03:30:16;9.20;;;8.90;;
20179;SDS011;10249;48.900;9.090;2023-09-19T03:32:43;9.10;;;8.80;;
20179;SDS011;10249;48.900;9.090;2023-09-19T03:35:11;9.20;;;8.90;;
20179;SDS011;10249;48.900;9.090;2023-09-19T03:37:39;8.57;;;8.27;;
20179;SDS011;10249;48.900;9.090;2023-09-19T03:40:07;8.20;;;7.90;;
20179;SDS011;10249;48.900;9.090;2023-09-19T03:42:38;8.47;;;8.17;;
20179;SDS011;10249;48.900;9.090;2023-09-19T03:45:06;7.90;;;7.70;;
20179;SDS011;10249;48.900;9.090;2023-09-19T03:47:37;8.40;;;8.10;;
20179;SDS011;10249;48.900;9.090;2023-09-19T03:50:04;7.73;;;7.53;;
20179;SDS011;10249;48.900;9.090;2023-09-19T03:52:32;7.57;;;7.37;;
20179;SDS011;10249;48.900;9.090;2023-09-19T03:54:59;7.10;;;6.90;;
20179;SDS011;10249;48.900;9.090;2023-09-19T03:57:26;7.30;;;7.10;;
20179;SDS011;10249;48.900;9.090;2023-09-19T03:59:53;6.93;;;6.73;;
20179;SDS011;10249;48.900;9.090;2023-09-19T04:02:22;6.90;;;6.70;;
20179;SDS011;10249;48.900;9.090;2023-09-19T04:04:49;6.87;;;6.67;;
20179;SDS011;10249;48.900;9.090;2023-09-19T04:07:16;6.50;;;6.30;;
20179;SDS011;10249;48.900;9.090;2023-09-19T04:09:44;6.90;;;6.70;;
20179;SDS011;10249;48.900;9.090;2023-09-19T04:12:11;7.00;;;6.80;;
20179;SDS011;10249;48.900;9.090;2023-09-19T04:14:38;6.90;;;6.70;;
20179;SDS011;10249;48.900;9.090;2023-09-19T04:17:04;6.90;;;6.70;;
20179;SDS011;10249;48.900;9.090;2023-09-19T04:19:33;7.07;;;6.87;;
20179;SDS011;10249;48.900;9.090;2023-09-19T04:22:00;7.43;;;7.23;;
20179;SDS011;10249;48.900;9.090;2023-09-19T04:24:27;8.00;;;7.80;;
20179;SDS011;10249;48.900;9.090;2023-09-19T04:26:53;7.80;;;7.60;;
20179;SDS011;10249;48.900;9.090;2023-09-19T04:29:20;7.83;;;7.63;;
20179;SDS011;10249;48.900;9.090;2023-09-19T04:31:47;8.00;;;7.80;;
20179;SDS011;10249;48.900;9.090;2023-09-19T04:34:14;8.77;;;8.47;;
20179;SDS011;10249;48.900;9.090;2023-09-19T04:36:43;8.57;;;8.27;;
20179;SDS011;10249;48.900;9.090;2023-09-19T04:39:10;9.13;;;8.83;;
20179;SDS011;10249;48.900;9.090;2023-09-19T04:41:38;9.43;;;9.13;;
20179;SDS011;10249;48.900;9.090;2023-09-19T04:44:06;8.60;;;8.30;;
20179;SDS011;10249;48.900;9.090;2023-09-19T04:46:33;9.50;;;9.20;;
20179;SDS011;10249;48.900;9.090;2023-09-19T04:49:00;9.10;;;8.80;;
20179;SDS011;10249;48.900;9.090;2023-09-19T04:51:28;8.50;;;8.20;;
20179;SDS011;10249;48.900;9.090;2023-09-19T04:54:00;7.67;;;7.47;;
20179;SDS011;10249;48.900;9.090;2023-09-19T04:56:28;7.27;;;7.07;;
20179;SDS011;10249;48.900;9.090;2023-09-19T04:58:55;7.83;;;7.63;;
20179;SDS011;10249;48.900;9.090;2023-09-19T05:01:23;6.70;;;6.50;;
20179;SDS011;10249;48.900;9.090;2023-09-19T05:03:50;5.90;;;5.70;;
20179;SDS011;10249;48.900;9.090;2023-09-19T05:06:18;5.57;;;5.37;;
20179;SDS011;10249;48.900;9.090;2023-09-19T05:08:46;5.00;;;4.90;;
20179;SDS011;10249;48.900;9.090;2023-09-19T05:11:17;3.87;;;3.77;;
20179;SDS011;10249;48.900;9.090;2023-09-19T05:13:45;3.90;;;3.80;;
20179;SDS011;10249;48.900;9.090;2023-09-19T05:16:12;3.93;;;3.83;;
20179;SDS011;10249;48.900;9.090;2023-09-19T05:18:39;4.38;;;4.28;;
20179;SDS011;10249;48.900;9.090;2023-09-19T05:21:06;3.47;;;3.37;;
20179;SDS011;10249;48.900;9.090;2023-09-19T05:23:33;3.57;;;3.47;;
20179;SDS011;10249;48.900;9.090;2023-09-19T05:26:02;3.40;;;3.30;;
20179;SDS011;10249;48.900;9.090;2023-09-19T05:28:31;2.90;;;2.80;;
20179;SDS011;10249;48.900;9.090;2023-09-19T05:30:59;2.70;;;2.60;;
20179;SDS011;10249;48.900;9.090;2023-09-19T05:33:27;2.63;;;2.53;;
20179;SDS011;10249;48.900;9.090;2023-09-19T05:35:56;2.80;;;2.70;;
20179;SDS011;10249;48.900;9.090;2023-09-19T05:38:24;2.20;;;2.10;;
20179;SDS011;10249;48.900;9.090;2023-09-19T05:40:52;2.10;;;2.00;;
20179;SDS011;10249;48.900;9.090;2023-09-19T05:43:19;2.30;;;2.20;;
20179;SDS011;10249;48.900;9.090;2023-09-19T05:45:48;2.40;;;2.30;;
20179;SDS011;10249;48.900;9.090;2023-09-19T05:48:17;2.50;;;2.40;;
20179;SDS011;10249;48.900;9.090;2023-09-19T05:50:46;3.47;;;3.37;;
20179;SDS011;10249;48.900;9.090;2023-09-19T05:53:14;3.80;;;3.70;;
20179;SDS011;10249;48.900;9.090;2023-09-19T05:55:41;4.50;;;4.40;;
20179;SDS011;10249;48.900;9.090;2023-09-19T05:58:08;4.90;;;4.70;;
20179;SDS011;10249;48.900;9.090;2023-09-19T06:00:39;4.70;;;4.60;;
20179;SDS011;10249;48.900;9.090;2023-09-19T06:03:09;4.43;;;4.33;;
20179;SDS011;10249;48.900;9.090;2023-09-19T06:05:36;5.40;;;5.20;;
20179;SDS011;10249;48.900;9.090;2023-09-19T06:08:05;5.50;;;5.30;;
20179;SDS011;10249;48.900;9.090;2023-09-19T06:10:34;5.10;;;5.00;;
20179;SDS011;10249;48.900;9.090;2023-09-19T06:13:01;5.90;;;5.70;;
20179;SDS011;10249;48.900;9.090;2023-09-19T06:15:31;5.67;;;5.47;;
20179;SDS011;10249;48.900;9.090;2023-09-19T06:18:01;5.80;;;5.60;;
20179;SDS011;10249;48.900;9.090;2023-09-19T06:20:31;6.53;;;6.33;;
20179;SDS011;10249;48.900;9.090;2023-09-19T06:22:58;6.40;;;6.20;;
20179;SDS011;10249;48.900;9.090;2023-09-19T06:25:27;7.10;;;6.90;;
20179;SDS011;10249;48.900;9.090;2023-09-19T06:27:54;7.10;;;6.90;;
20179;SDS011;10249;48.900;9.090;2023-09-19T06:30:22;7.30;;;7.10;;
20179;SDS011;10249;48.900;9.090;2023-09-19T06:32:49;7.33;;;7.13;;
20179;SDS011;10249;48.900;9.090;2023-09-19T06:35:22;7.00;;;6.80;;
20179;SDS011;10249;48.900;9.090;2023-09-19T06:37:52;7.70;;;7.50;;
20179;SDS011;10249;48.900;9.090;2023-09-19T06:40:22;6.97;;;6.77;;
20179;SDS011;10249;48.900;9.090;2023-09-19T06:42:50;7.47;;;7.27;;
20179;SDS011;10249;48.900;9.090;2023-09-19T06:45:18;7.60;;;7.40;;
20179;SDS011;10249;48.900;9.090;2023-09-19T06:47:46;8.73;;;8.43;;
20179;SDS011;10249;48.900;9.090;2023-09-19T06:50:15;9.13;;;8.83;;
20179;SDS011;10249;48.900;9.090;2023-09-19T06:52:43;9.07;;;8.77;;
20179;SDS011;10249;48.900;9.090;2023-09-19T06:55:12;9.07;;;8.77;;
20179;SDS011;10249;48.900;9.090;2023-09-19T06:57:41;8.90;;;8.60;;
20179;SDS011;10249;48.900;9.090;2023-09-19T07:00:09;8.63;;;8.33;;
20179;SDS011;10249;48.900;9.090;2023-09-19T07:02:41;7.90;;;7.70;;
20179;SDS011;10249;48.900;9.090;2023-09-19T07:05:08;8.20;;;7.90;;
20179;SDS011;10249;48.900;9.090;2023-09-19T07:07:36;8.00;;;7.80;;
20179;SDS011;10249;48.900;9.090;2023-09-19T07:10:04;7.73;;;7.53;;
20179;SDS011;10249;48.900;9.090;2023-09-19T07:12:33;7.80;;;7.60;;
20179;SDS011;10249;48.900;9.090;2023-09-19T07:15:00;7.60;;;7.40;;
20179;SDS011;10249;48.900;9.090;2023-09-19T07:17:28;8.37;;;8.07;;
20179;SDS011;10249;48.900;9.090;2023-09-19T07:19:55;7.70;;;7.50;;
20179;SDS011;10249;48.900;9.090;2023-09-19T07:22:23;8.50;;;8.20;;
20179;SDS011;10249;48.900;9.090;2023-09-19T07:24:50;8.10;;;7.87;;
20179;SDS011;10249;48.900;9.090;2023-09-19T07:27:17;8.30;;;8.00;;
20179;SDS011;10249;48.900;9.090;2023-09-19T07:29:45;8.90;;;8.60;;
20179;SDS011;10249;48.900;9.090;2023-09-19T07:32:13;8.20;;;7.90;;
20179;SDS011;10249;48.900;9.090;2023-09-19T07:34:42;9.00;;;8.70;;
20179;SDS011;10249;48.900;9.090;2023-09-19T07:37:10;8.80;;;8.50;;
20179;SDS011;10249;48.900;9.090;2023-09-19T07:39:38;9.40;;;9.10;;
20179;SDS011;10249;48.900;9.090;2023-09-19T07:42:06;8.73;;;8.43;;
20179;SDS011;10249;48.900;9.090;2023-09-19T07:44:34;9.47;;;9.17;;
20179;SDS011;10249;48.900;9.090;2023-09-19T07:47:03;8.50;;;8.20;;
20179;SDS011;10249;48.900;9.090;2023-09-19T07:49:30;9.30;;;9.00;;
20179;SDS011;10249;48.900;9.090;2023-09-19T07:51:57;9.23;;;8.93;;
20179;SDS011;10249;48.900;9.090;2023-09-19T07:54:25;9.30;;;9.00;;
20179;SDS011;10249;48.900;9.090;2023-09-19T07:56:56;9.47;;;9.17;;
20179;SDS011;10249;48.900;9.090;2023-09-19T07:59:24;9.17;;;8.87;;
20179;SDS011;10249;48.900;9.090;2023-09-19T08:01:51;9.50;;;9.20;;
20179;SDS011;10249;48.900;9.090;2023-09-19T08:04:20;9.30;;;9.00;;
20179;SDS011;10249;48.900;9.090;2023-09-19T08:06:47;9.40;;;9.10;;
20179;SDS011;10249;48.900;9.090;2023-09-19T08:09:17;9.37;;;9.07;;
20179;SDS011;10249;48.900;9.090;2023-09-19T08:11:45;9.40;;;9.10;;
20179;SDS011;10249;48.900;9.090;2023-09-19T08:14:12;10.47;;;9.97;;
20179;SDS011;10249;48.900;9.090;2023-09-19T08:16:40;10.23;;;9.87;;
20179;SDS011;10249;48.900;9.090;2023-09-19T08:19:09;9.53;;;9.23;;
20179;SDS011;10249;48.900;9.090;2023-09-19T08:21:38;10.73;;;10.33;;
20179;SDS011;10249;48.900;9.090;2023-09-19T08:24:05;10.97;;;10.57;;
20179;SDS011;10249;48.900;9.090;2023-09-19T08:26:34;10.87;;;10.47;;
20179;SDS011;10249;48.900;9.090;2023-09-19T08:29:02;11.30;;;10.90;;
20179;SDS011;10249;48.900;9.090;2023-09-19T08:31:32;11.30;;;10.80;;
20179;SDS011;10249;48.900;9.090;2023-09-19T08:34:00;11.00;;;10.60;;
20179;SDS011;10249;48.900;9.090;2023-09-19T08:36:27;11.40;;;11.00;;
20179;SDS011;10249;48.900;9.090;2023-09-19T08:38:57;11.27;;;10.87;;
20179;SDS011;10249;48.900;9.090;2023-09-19T08:41:24;11.47;;;11.07;;
20179;SDS011;10249;48.900;9.090;2023-09-19T08:43:51;11.27;;;10.87;;
20179;SDS011;10249;48.900;9.090;2023-09-19T08:46:20;11.60;;;11.20;;
20179;SDS011;10249;48.900;9.090;2023-09-19T08:48:58;11.13;;;10.73;;
20179;SDS011;10249;48.900;9.090;2023-09-19T08:51:30;11.33;;;10.93;;
20179;SDS011;10249;48.900;9.090;2023-09-19T08:54:03;12.17;;;11.67;;
20179;SDS011;10249;48.900;9.090;2023-09-19T08:56:35;11.60;;;11.20;;
20179;SDS011;10249;48.900;9.090;2023-09-19T08:59:05;11.40;;;11.00;;
20179;SDS011;10249;48.900;9.090;2023-09-19T09:01:33;11.60;;;11.20;;
20179;SDS011;10249;48.900;9.090;2023-09-19T09:04:01;11.70;;;11.30;;
20179;SDS011;10249;48.900;9.090;2023-09-19T09:06:29;11.90;;;11.40;;
20179;SDS011;10249;48.900;9.090;2023-09-19T09:08:57;11.87;;;11.37;;
20179;SDS011;10249;48.900;9.090;2023-09-19T09:11:26;12.20;;;11.70;;
20179;SDS011;10249;48.900;9.090;2023-09-19T09:13:53;12.30;;;11.80;;
20179;SDS011;10249;48.900;9.090;2023-09-19T09:16:21;12.40;;;11.80;;
20179;SDS011;10249;48.900;9.090;2023-09-19T09:18:51;12.30;;;11.80;;
20179;SDS011;10249;48.900;9.090;2023-09-19T09:21:19;12.60;;;12.10;;
20179;SDS011;10249;48.900;9.090;2023-09-19T09:23:47;13.20;;;12.60;;
20179;SDS011;10249;48.900;9.090;2023-09-19T09:26:14;12.63;;;12.13;;
20179;SDS011;10249;48.900;9.090;2023-09-19T09:28:45;13.17;;;12.57;;
20179;SDS011;10249;48.900;9.090;2023-09-19T09:31:24;12.90;;;12.40;;
20179;SDS011;10249;48.900;9.090;2023-09-19T09:33:55;13.10;;;12.50;;
20179;SDS011;10249;48.900;9.090;2023-09-19T09:36:33;13.67;;;13.07;;
20179;SDS011;10249;48.900;9.090;2023-09-19T09:39:02;13.27;;;12.67;;
20179;SDS011;10249;48.900;9.090;2023-09-19T09:41:41;13.47;;;12.87;;
20179;SDS011;10249;48.900;9.090;2023-09-19T09:44:13;13.17;;;12.60;;
20179;SDS011;10249;48.900;9.090;2023-09-19T09:46:42;13.50;;;12.90;;
20179;SDS011;10249;48.900;9.090;2023-09-19T09:49:23;13.90;;;13.30;;
20179;SDS011;10249;48.900;9.090;2023-09-19T09:52:00;13.80;;;13.20;;
20179;SDS011;10249;48.900;9.090;2023-09-19T09:54:31;14.13;;;13.53;;
20179;SDS011;10249;48.900;9.090;2023-09-19T09:57:03;14.20;;;13.50;;
20179;SDS011;10249;48.900;9.090;2023-09-19T09:59:45;13.70;;;13.10;;
20179;SDS011;10249;48.900;9.090;2023-09-19T10:02:12;14.23;;;13.53;;
20179;SDS011;10249;48.900;9.090;2023-09-19T10:04:46;13.93;;;13.33;;
20179;SDS011;10249;48.900;9.090;2023-09-19T10:07:27;14.10;;;13.50;;
20179;SDS011;10249;48.900;9.090;2023-09-19T10:09:58;14.67;;;13.97;;
20179;SDS011;10249;48.900;9.090;2023-09-19T10:12:34;14.53;;;13.83;;
20179;SDS011;10249;48.900;9.090;2023-09-19T10:15:05;14.57;;;13.87;;
20179;SDS011;10249;48.900;9.090;2023-09-19T10:17:36;14.70;;;14.00;;
20179;SDS011;10249;48.900;9.090;2023-09-19T10:20:03;15.00;;;14.30;;
20179;SDS011;10249;48.900;9.090;2023-09-19T10:22:43;15.10;;;14.40;;
20179;SDS011;10249;48.900;9.090;2023-09-19T10:25:10;14.57;;;13.87;;
20179;SDS011;10249;48.900;9.090;2023-09-19T10:27:38;15.67;;;14.90;;
20179;SDS011;10249;48.900;9.090;2023-09-19T10:30:10;14.97;;;14.27;;
20179;SDS011;10249;48.900;9.090;2023-09-19T10:32:38;14.70;;;14.00;;
20179;SDS011;10249;48.900;9.090;2023-09-19T10:35:07;14.63;;;13.93;;
20179;SDS011;10249;48.900;9.090;2023-09-19T10:37:34;14.97;;;14.27;;
20179;SDS011;10249;48.900;9.090;2023-09-19T10:40:03;14.90;;;14.20;;
20179;SDS011;10249;48.900;9.090;2023-09-19T10:42:33;14.43;;;13.73;;
20179;SDS011;10249;48.900;9.090;2023-09-19T10:45:05;13.93;;;13.23;;
20179;SDS011;10249;48.900;9.090;2023-09-19T10:47:39;14.80;;;14.10;;
20179;SDS011;10249;48.900;9.090;2023-09-19T10:50:06;14.70;;;14.00;;
20179;SDS011;10249;48.900;9.090;2023-09-19T10:52:38;14.67;;;13.97;;
20179;SDS011;10249;48.900;9.090;2023-09-19T10:55:08;14.20;;;13.50;;
20179;SDS011;10249;48.900;9.090;2023-09-19T10:57:37;14.07;;;13.37;;
20179;SDS011;10249;48.900;9.090;2023-09-19T11:00:04;13.50;;;12.90;;
20179;SDS011;10249;48.900;9.090;2023-09-19T11:05:33;14.10;;;13.40;;
20179;SDS011;10249;48.900;9.090;2023-09-19T11:08:05;14.33;;;13.73;;
20179;SDS011;10249;48.900;9.090;2023-09-19T11:10:45;14.87;;;14.17;;
20179;SDS011;10249;48.900;9.090;2023-09-19T11:13:23;14.73;;;14.03;;
20179;SDS011;10249;48.900;9.090;2023-09-19T11:24:30;14.10;;;13.50;;
20179;SDS011;10249;48.900;9.090;2023-09-19T11:27:14;14.90;;;14.20;;
20179;SDS011;10249;48.900;9.090;2023-09-19T11:29:43;14.10;;;13.50;;
20179;SDS011;10249;48.900;9.090;2023-09-19T11:32:10;14.27;;;13.67;;
20179;SDS011;10249;48.900;9.090;2023-09-19T11:34:40;14.50;;;13.80;;
20179;SDS011;10249;48.900;9.090;2023-09-19T11:42:45;14.70;;;14.00;;
20179;SDS011;10249;48.900;9.090;2023-09-19T11:48:05;14.40;;;13.70;;
20179;SDS011;10249;48.900;9.090;2023-09-19T11:50:32;14.53;;;13.83;;
20179;SDS011;10249;48.900;9.090;2023-09-19T11:53:01;14.87;;;14.17;;
20179;SDS011;10249;48.900;9.090;2023-09-19T11:55:30;14.87;;;14.17;;
20179;SDS011;10249;48.900;9.090;2023-09-19T11:58:01;14.70;;;14.00;;
20179;SDS011;10249;48.900;9.090;2023-09-19T12:00:28;14.73;;;14.03;;
20179;SDS011;10249;48.900;9.090;2023-09-19T12:02:55;15.33;;;14.53;;
20179;SDS011;10249;48.900;9.090;2023-09-19T12:05:28;16.33;;;15.53;;
20179;SDS011;10249;48.900;9.090;2023-09-19T12:07:56;15.63;;;14.83;;
20179;SDS011;10249;48.900;9.090;2023-09-19T12:10:23;15.90;;;15.10;;
20179;SDS011;10249;48.900;9.090;2023-09-19T12:12:51;15.97;;;15.17;;
20179;SDS011;10249;48.900;9.090;2023-09-19T12:15:25;15.90;;;15.10;;
20179;SDS011;10249;48.900;9.090;2023-09-19T12:17:53;16.03;;;15.23;;
20179;SDS011;10249;48.900;9.090;2023-09-19T12:20:21;15.50;;;14.70;;
20179;SDS011;10249;48.900;9.090;2023-09-19T12:22:48;15.73;;;14.93;;
20179;SDS011;10249;48.900;9.090;2023-09-19T12:25:16;15.68;;;14.88;;
20179;SDS011;10249;48.900;9.090;2023-09-19T12:27:45;15.80;;;15.00;;
20179;SDS011;10249;48.900;9.090;2023-09-19T12:30:14;15.77;;;14.97;;
20179;SDS011;10249;48.900;9.090;2023-09-19T12:32:44;15.63;;;14.82;;
20179;SDS011;10249;48.900;9.090;2023-09-19T12:35:26;15.50;;;14.70;;
20179;SDS011;10249;48.900;9.090;2023-09-19T12:37:55;16.00;;;15.20;;
20179;SDS011;10249;48.900;9.090;2023-09-19T12:40:23;15.80;;;15.00;;
20179;SDS011;10249;48.900;9.090;2023-09-19T12:42:53;15.90;;;15.10;;
20179;SDS011;10249;48.900;9.090;2023-09-19T12:45:21;16.00;;;15.20;;
20179;SDS011;10249;48.900;9.090;2023-09-19T12:50:35;15.57;;;14.77;;
20179;SDS011;10249;48.900;9.090;2023-09-19T12:53:03;15.50;;;14.70;;
20179;SDS011;10249;48.900;9.090;2023-09-19T12:55:30;15.60;;;14.80;;
20179;SDS011;10249;48.900;9.090;2023-09-19T12:57:59;15.70;;;14.90;;
20179;SDS011;10249;48.900;9.090;2023-09-19T13:00:34;15.60;;;14.80;;
20179;SDS011;10249;48.900;9.090;2023-09-19T13:03:14;15.40;;;14.60;;
20179;SDS011;10249;48.900;9.090;2023-09-19T13:05:53;15.70;;;14.90;;
20179;SDS011;10249;48.900;9.090;2023-09-19T13:08:21;15.55;;;14.75;;
20179;SDS011;10249;48.900;9.090;2023-09-19T13:11:01;15.60;;;14.80;;
20179;SDS011;10249;48.900;9.090;2023-09-19T13:13:28;15.60;;;14.80;;
20179;SDS011;10249;48.900;9.090;2023-09-19T13:15:56;15.50;;;14.70;;
20179;SDS011;10249;48.900;9.090;2023-09-19T13:18:23;15.30;;;14.50;;
20179;SDS011;10249;48.900;9.090;2023-09-19T13:21:06;15.40;;;14.60;;
20179;SDS011;10249;48.900;9.090;2023-09-19T13:23:35;15.40;;;14.60;;
20179;SDS011;10249;48.900;9.090;2023-09-19T13:26:03;15.37;;;14.57;;
20179;SDS011;10249;48.900;9.090;2023-09-19T13:28:30;15.80;;;14.90;;
20179;SDS011;10249;48.900;9.090;2023-09-19T13:30:58;15.20;;;14.40;;
20179;SDS011;10249;48.900;9.090;2023-09-19T13:33:25;15.67;;;14.87;;
20179;SDS011;10249;48.900;9.090;2023-09-19T13:35:52;15.65;;;14.85;;
20179;SDS011;10249;48.900;9.090;2023-09-19T13:38:21;15.77;;;14.97;;
20179;SDS011;10249;48.900;9.090;2023-09-19T13:40:48;15.75;;;14.95;;
20179;SDS011;10249;48.900;9.090;2023-09-19T13:43:17;15.73;;;14.93;;
20179;SDS011;10249;48.900;9.090;2023-09-19T13:45:47;15.77;;;14.97;;
20179;SDS011;10249;48.900;9.090;2023-09-19T13:48:15;16.00;;;15.20;;
20179;SDS011;10249;48.900;9.090;2023-09-19T13:50:45;15.77;;;14.97;;
20179;SDS011;10249;48.900;9.090;2023-09-19T13:53:12;15.68;;;14.88;;
20179;SDS011;10249;48.900;9.090;2023-09-19T13:55:41;15.33;;;14.53;;
20179;SDS011;10249;48.900;9.090;2023-09-19T13:58:08;15.70;;;14.90;;
20179;SDS011;10249;48.900;9.090;2023-09-19T14:00:37;15.63;;;14.83;;
20179;SDS011;10249;48.900;9.090;2023-09-19T14:03:04;15.50;;;14.73;;
20179;SDS011;10249;48.900;9.090;2023-09-19T14:05:32;15.93;;;15.13;;
20179;SDS011;10249;48.900;9.090;2023-09-19T14:07:59;15.90;;;15.10;;
20179;SDS011;10249;48.900;9.090;2023-09-19T14:10:28;15.60;;;14.80;;
20179;SDS011;10249;48.900;9.090;2023-09-19T14:12:57;15.93;;;15.13;;
20179;SDS011;10249;48.900;9.090;2023-09-19T14:15:25;15.90;;;15.10;;
20179;SDS011;10249;48.900;9.090;2023-09-19T14:17:55;15.93;;;15.13;;
20179;SDS011;10249;48.900;9.090;2023-09-19T14:20:25;15.82;;;15.02;;
20179;SDS011;10249;48.900;9.090;2023-09-19T14:22:52;15.90;;;15.10;;
20179;SDS011;10249;48.900;9.090;2023-09-19T14:25:20;16.02;;;15.23;;
20179;SDS011;10249;48.900;9.090;2023-09-19T14:27:47;16.67;;;15.87;;
20179;SDS011;10249;48.900;9.090;2023-09-19T14:30:16;16.42;;;15.63;;
20179;SDS011;10249;48.900;9.090;2023-09-19T14:32:43;16.40;;;15.60;;
20179;SDS011;10249;48.900;9.090;2023-09-19T14:35:10;16.23;;;15.43;;
20179;SDS011;10249;48.900;9.090;2023-09-19T14:37:38;16.30;;;15.50;;
20179;SDS011;10249;48.900;9.090;2023-09-19T14:40:06;16.55;;;15.75;;
20179;SDS011;10249;48.900;9.090;2023-09-19T14:42:36;16.42;;;15.63;;
20179;SDS011;10249;48.900;9.090;2023-09-19T14:45:04;16.60;;;15.80;;
20179;SDS011;10249;48.900;9.090;2023-09-19T14:47:33;16.40;;;15.60;;
20179;SDS011;10249;48.900;9.090;2023-09-19T14:50:01;16.55;;;15.75;;
20179;SDS011;10249;48.900;9.090;2023-09-19T14:52:31;16.50;;;15.70;;
20179;SDS011;10249;48.900;9.090;2023-09-19T14:54:58;16.43;;;15.63;;
20179;SDS011;10249;48.900;9.090;2023-09-19T14:57:26;16.20;;;15.33;;
20179;SDS011;10249;48.900;9.090;2023-09-19T14:59:54;16.03;;;15.23;;
20179;SDS011;10249;48.900;9.090;2023-09-19T15:02:21;15.70;;;14.90;;
20179;SDS011;10249;48.900;9.090;2023-09-19T15:04:51;16.00;;;15.20;;
20179;SDS011;10249;48.900;9.090;2023-09-19T15:07:18;16.17;;;15.27;;
20179;SDS011;10249;48.900;9.090;2023-09-19T15:09:45;15.80;;;15.00;;
20179;SDS011;10249;48.900;9.090;2023-09-19T15:12:12;15.97;;;15.17;;